Open Full Screen Window  High Contrast Mode
Wind Gusting 00 knots
05
April 20, 2014 5:04 PM EDT
Weather Information
Wind Direction
  250 °
Wind Speed
  05 kt (6 mph)
Wind Gust
  00 kt (0 mph)
Altimeter
30.15 in
Visibility
10 SM
Temperature
25° C
77° F
Dewpoint
02° C
36° F
Humidity
22%
1hr Rain Fall
00.00 in.
24hr Rain Fall
00.00 in.
Sky Condition
Clear
VFR

METAR KI69 202104Z AUTO 25005KT 10SM CLR 25/02 A3015 RMK AO1

*Background is not an actual portrayal of the airport.